Time;durP1;ratioP1;P1;durP2;ratioP2;P2;SDS_P1;SDS_P2;PMS_P1;PMS_P2;Temp;Humidity;BMP_temperature;BMP_pressure;BME280_temperature;BME280_humidity;BME280_pressure;Samples;Min_cycle;Max_cycle;Signal;HPM_P1;HPM_P2
2022/09/26 00:01:59;;;;;;;0.93;0.55;;;20.00;66.70;;;;;;4995128;28;20042;-63
2022/09/26 00:04:27;;;;;;;1.45;0.52;;;20.00;66.60;;;;;;4994719;28;20762;-63
2022/09/26 00:06:53;;;;;;;1.75;0.60;;;20.00;66.60;;;;;;4994187;28;20045;-64
2022/09/26 00:09:19;;;;;;;3.25;0.80;;;20.00;66.60;;;;;;4995014;28;20117;-63
2022/09/26 00:11:45;;;;;;;1.95;0.60;;;20.00;66.70;;;;;;4995026;28;20081;-63
2022/09/26 00:14:25;;;;;;;2.13;0.55;;;19.90;66.60;;;;;;4994077;28;20063;-63
2022/09/26 00:16:50;;;;;;;1.52;0.75;;;19.90;66.60;;;;;;4995243;28;20098;-63
2022/09/26 00:19:16;;;;;;;2.33;0.70;;;19.90;66.60;;;;;;4994787;28;20423;-64
2022/09/26 00:21:42;;;;;;;1.63;0.68;;;19.90;66.60;;;;;;4976773;28;20038;-64
2022/09/26 00:24:07;;;;;;;1.52;0.70;;;19.90;66.60;;;;;;4994472;28;20549;-63
2022/09/26 00:26:34;;;;;;;2.25;0.60;;;19.90;66.60;;;;;;4994955;28;20073;-64
2022/09/26 00:29:03;;;;;;;1.48;0.75;;;19.90;66.60;;;;;;4976600;28;20401;-64
2022/09/26 00:31:30;;;;;;;1.48;0.70;;;19.90;66.60;;;;;;4994453;28;20121;-63
2022/09/26 00:33:56;;;;;;;1.13;0.50;;;19.90;66.50;;;;;;4994669;28;20050;-64
2022/09/26 00:36:22;;;;;;;1.80;0.60;;;19.90;66.60;;;;;;4993726;28;20380;-64
2022/09/26 00:38:47;;;;;;;2.25;0.60;;;19.90;66.60;;;;;;4994765;28;20034;-63
2022/09/26 00:41:13;;;;;;;3.08;0.60;;;19.90;66.50;;;;;;4994642;28;20046;-63
2022/09/26 00:43:40;;;;;;;1.55;0.65;;;19.90;66.50;;;;;;4992820;28;20058;-63
2022/09/26 00:46:18;;;;;;;1.70;0.60;;;19.90;66.50;;;;;;4994608;28;20053;-63
2022/09/26 00:48:44;;;;;;;2.27;0.60;;;19.90;66.50;;;;;;4993616;28;20052;-63
2022/09/26 00:51:10;;;;;;;1.80;0.60;;;19.90;66.50;;;;;;4992763;28;20046;-63
2022/09/26 00:53:38;;;;;;;2.33;1.13;;;19.90;66.50;;;;;;4994457;28;20124;-64
2022/09/26 00:56:10;;;;;;;1.67;0.60;;;19.90;66.50;;;;;;4993282;28;20502;-63
2022/09/26 00:58:58;;;;;;;1.58;0.60;;;19.80;66.40;;;;;;4994220;28;20494;-63
2022/09/26 01:01:24;;;;;;;1.38;0.50;;;19.80;66.40;;;;;;4993065;28;20046;-63
2022/09/26 01:03:50;;;;;;;1.83;0.75;;;19.80;66.40;;;;;;4993263;28;20057;-63
2022/09/26 01:06:15;;;;;;;1.88;0.60;;;19.80;66.40;;;;;;4993283;28;20047;-64
2022/09/26 01:09:11;;;;;;;2.95;0.77;;;19.80;66.40;;;;;;4994047;28;20054;-63
2022/09/26 01:11:38;;;;;;;2.30;0.70;;;19.80;66.40;;;;;;4991849;28;20058;-63
2022/09/26 01:14:04;;;;;;;2.35;0.60;;;19.80;66.40;;;;;;4976686;28;20061;-63
2022/09/26 01:16:30;;;;;;;2.20;0.85;;;19.80;66.40;;;;;;4992210;28;20042;-63
2022/09/26 01:18:56;;;;;;;2.70;0.55;;;19.80;66.40;;;;;;4992885;28;20100;-63
2022/09/26 01:21:56;;;;;;;2.00;0.60;;;19.80;66.30;;;;;;4975969;28;20049;-63
2022/09/26 01:24:45;;;;;;;1.67;0.70;;;19.80;66.30;;;;;;4992767;28;20046;-63
2022/09/26 01:27:23;;;;;;;1.25;0.60;;;19.80;66.30;;;;;;4992453;28;20042;-63
2022/09/26 01:30:13;;;;;;;1.35;0.50;;;19.80;66.30;;;;;;4992320;28;20175;-63
2022/09/26 01:32:50;;;;;;;0.90;0.60;;;19.80;66.30;;;;;;4993133;28;20050;-63
2022/09/26 01:35:37;;;;;;;2.30;0.60;;;19.80;66.30;;;;;;4993458;28;20050;-63
2022/09/26 01:38:06;;;;;;;1.80;0.60;;;19.80;66.90;;;;;;4992968;28;20979;-63
2022/09/26 01:40:50;;;;;;;1.70;0.63;;;19.70;66.20;;;;;;4993555;28;20085;-63
2022/09/26 01:43:33;;;;;;;1.98;0.80;;;19.70;66.20;;;;;;4993384;28;20046;-63
2022/09/26 01:46:24;;;;;;;3.03;0.70;;;19.80;66.20;;;;;;4991447;28;20058;-64
2022/09/26 01:48:57;;;;;;;1.55;0.63;;;19.70;66.20;;;;;;4990974;28;20086;-63
2022/09/26 01:51:25;;;;;;;1.30;0.60;;;19.70;66.10;;;;;;4975808;28;20083;-64
2022/09/26 01:54:03;;;;;;;1.38;0.82;;;19.70;66.20;;;;;;4991494;28;20050;-63
2022/09/26 01:56:30;;;;;;;1.52;0.63;;;19.70;66.10;;;;;;4975535;28;20046;-63
2022/09/26 01:58:57;;;;;;;1.60;0.60;;;19.70;66.10;;;;;;4975135;28;20043;-63
2022/09/26 02:01:24;;;;;;;1.92;0.60;;;19.70;66.20;;;;;;4990740;28;20034;-64
2022/09/26 02:03:52;;;;;;;2.25;0.80;;;19.70;66.10;;;;;;4991985;28;20054;-63
2022/09/26 02:06:26;;;;;;;1.42;0.63;;;19.70;66.10;;;;;;4991086;28;20053;-63
2022/09/26 02:08:55;;;;;;;1.73;0.70;;;19.70;66.10;;;;;;4992170;28;20406;-63
2022/09/26 02:11:21;;;;;;;1.27;0.63;;;19.70;66.10;;;;;;4991880;28;20058;-63
2022/09/26 02:14:12;;;;;;;2.72;0.90;;;19.70;66.10;;;;;;4991403;28;20042;-63
2022/09/26 02:16:47;;;;;;;1.20;0.60;;;19.70;66.10;;;;;;4987560;28;20137;-63
2022/09/26 02:19:49;;;;;;;1.80;0.70;;;19.70;66.00;;;;;;4995774;28;20498;-63
2022/09/26 02:22:14;;;;;;;1.75;0.60;;;19.70;66.00;;;;;;4992920;28;20058;-63
2022/09/26 02:24:40;;;;;;;1.35;0.60;;;19.60;66.00;;;;;;4996050;28;20046;-63
2022/09/26 02:27:06;;;;;;;1.48;0.70;;;19.70;66.00;;;;;;4996339;28;20042;-63
2022/09/26 02:29:32;;;;;;;0.85;0.50;;;19.60;65.90;;;;;;4996961;28;20100;-63
2022/09/26 02:32:11;;;;;;;0.95;0.50;;;19.60;65.90;;;;;;4995927;28;20100;-63
2022/09/26 02:34:39;;;;;;;2.25;0.60;;;19.60;65.80;;;;;;4994856;28;20047;-63
2022/09/26 02:37:04;;;;;;;1.35;0.50;;;19.60;65.90;;;;;;4996819;28;20050;-63
2022/09/26 02:39:30;;;;;;;1.38;0.73;;;19.60;65.90;;;;;;4978978;28;20130;-63
2022/09/26 02:41:55;;;;;;;2.60;0.70;;;19.60;65.80;;;;;;4994730;28;20509;-64
2022/09/26 02:44:24;;;;;;;2.08;0.70;;;19.60;65.80;;;;;;4995960;28;20069;-63
2022/09/26 02:47:01;;;;;;;1.38;0.50;;;19.60;65.80;;;;;;4996723;28;20054;-63
2022/09/26 02:49:48;;;;;;;1.85;0.70;;;19.60;65.80;;;;;;4995508;28;20569;-63
2022/09/26 02:52:22;;;;;;;2.15;0.85;;;19.60;65.70;;;;;;4996277;28;20046;-63
2022/09/26 02:55:07;;;;;;;1.60;0.60;;;19.60;65.80;;;;;;4995525;28;20081;-63
2022/09/26 02:58:02;;;;;;;1.27;0.60;;;19.60;65.80;;;;;;4995491;28;20042;-63
2022/09/26 03:00:31;;;;;;;1.50;0.52;;;19.60;65.70;;;;;;4996074;28;20128;-63
2022/09/26 03:03:04;;;;;;;0.65;0.40;;;19.60;65.80;;;;;;4994578;28;20050;-63
2022/09/26 03:05:30;;;;;;;1.23;0.50;;;19.60;65.70;;;;;;4994600;28;20050;-63
2022/09/26 03:07:59;;;;;;;1.48;0.80;;;19.50;65.70;;;;;;4995147;28;20101;-63
2022/09/26 03:10:25;;;;;;;0.73;0.50;;;19.50;65.70;;;;;;4995245;28;20528;-63
2022/09/26 03:12:51;;;;;;;1.30;0.55;;;19.60;65.70;;;;;;4995034;28;20125;-63
2022/09/26 03:15:16;;;;;;;1.98;0.63;;;19.50;65.60;;;;;;4994831;28;20054;-63
2022/09/26 03:17:46;;;;;;;1.02;0.52;;;19.50;65.70;;;;;;4994174;28;20052;-63
2022/09/26 03:20:17;;;;;;;1.95;0.60;;;19.50;65.60;;;;;;4994495;28;20512;-63
2022/09/26 03:22:42;;;;;;;1.05;0.50;;;19.50;65.70;;;;;;4995907;28;20089;-63
2022/09/26 03:25:15;;;;;;;1.48;0.70;;;19.50;65.70;;;;;;4993752;28;20070;-63
2022/09/26 03:27:42;;;;;;;1.73;0.70;;;19.50;65.60;;;;;;4994730;28;20042;-63
2022/09/26 03:30:09;;;;;;;1.42;0.50;;;19.50;65.60;;;;;;4994102;28;20401;-64
2022/09/26 03:32:36;;;;;;;1.52;0.60;;;19.50;65.60;;;;;;4977846;28;20105;-64
2022/09/26 03:35:02;;;;;;;1.63;0.60;;;19.50;65.60;;;;;;4978270;28;20108;-64
2022/09/26 03:37:27;;;;;;;2.25;0.60;;;19.50;65.60;;;;;;4977240;28;20050;-63
2022/09/26 03:39:54;;;;;;;1.67;0.57;;;19.50;65.60;;;;;;4995640;28;20108;-63
2022/09/26 03:42:19;;;;;;;1.42;0.50;;;19.50;65.60;;;;;;4995455;28;20189;-64
2022/09/26 03:44:45;;;;;;;1.58;0.63;;;19.50;65.60;;;;;;4994572;28;20062;-63
2022/09/26 03:47:11;;;;;;;1.52;0.50;;;19.50;65.60;;;;;;4995478;28;20053;-63
2022/09/26 03:49:37;;;;;;;1.38;0.60;;;19.50;65.60;;;;;;4995241;28;20100;-64
2022/09/26 03:52:03;;;;;;;1.73;0.80;;;19.50;65.80;;;;;;4994915;28;20074;-63
2022/09/26 03:54:29;;;;;;;1.67;0.60;;;19.50;65.50;;;;;;4995311;28;20050;-65
2022/09/26 03:56:54;;;;;;;3.15;0.60;;;19.50;65.60;;;;;;4978352;28;20042;-63
2022/09/26 03:59:20;;;;;;;2.08;0.50;;;19.50;65.50;;;;;;4977104;28;20494;-63
2022/09/26 04:01:46;;;;;;;0.63;0.50;;;19.50;65.50;;;;;;4992106;28;20085;-63
2022/09/26 04:04:14;;;;;;;2.47;0.55;;;19.50;65.50;;;;;;4994401;28;20046;-63
2022/09/26 04:06:39;;;;;;;1.25;0.63;;;19.50;65.50;;;;;;4993766;28;20430;-63
2022/09/26 04:09:05;;;;;;;1.83;0.70;;;19.50;65.50;;;;;;4995187;28;20042;-63
2022/09/26 04:11:30;;;;;;;1.05;0.43;;;19.50;65.50;;;;;;4995181;28;20038;-64
2022/09/26 04:13:56;;;;;;;1.10;0.52;;;19.50;65.50;;;;;;4994317;28;20078;-64
2022/09/26 04:16:22;;;;;;;1.67;0.60;;;19.50;65.50;;;;;;4994466;28;20096;-63
2022/09/26 04:18:48;;;;;;;0.90;0.60;;;19.50;66.10;;;;;;4994763;28;20078;-64
2022/09/26 04:21:13;;;;;;;2.35;0.80;;;19.40;65.50;;;;;;4993766;28;20132;-63
2022/09/26 04:23:39;;;;;;;1.02;0.60;;;19.40;65.50;;;;;;4994704;28;20046;-63
2022/09/26 04:26:09;;;;;;;1.67;0.52;;;19.40;65.50;;;;;;4994863;28;20042;-63
2022/09/26 04:28:34;;;;;;;2.00;0.70;;;19.40;65.50;;;;;;4994049;28;20053;-63
2022/09/26 04:31:00;;;;;;;1.35;0.60;;;19.40;65.40;;;;;;4994747;28;20046;-63
2022/09/26 04:33:27;;;;;;;1.67;0.65;;;19.40;65.50;;;;;;4994274;28;20042;-63
2022/09/26 04:35:53;;;;;;;1.15;0.60;;;19.40;65.50;;;;;;4993936;28;20112;-63
2022/09/26 04:38:18;;;;;;;2.65;0.68;;;19.40;65.50;;;;;;4993489;28;20043;-64
2022/09/26 04:40:44;;;;;;;2.10;0.63;;;19.40;65.50;;;;;;4993987;28;20046;-64
2022/09/26 04:43:10;;;;;;;1.25;0.50;;;19.40;65.50;;;;;;4994177;28;20042;-63
2022/09/26 04:45:35;;;;;;;0.95;0.55;;;19.40;65.50;;;;;;4994259;28;20120;-64
2022/09/26 04:48:01;;;;;;;1.50;0.60;;;19.40;65.50;;;;;;4993447;28;20085;-63
2022/09/26 04:50:27;;;;;;;1.52;0.70;;;19.40;65.50;;;;;;4994059;28;20050;-63
2022/09/26 04:52:53;;;;;;;1.38;0.57;;;19.40;65.50;;;;;;4993776;28;20038;-63
2022/09/26 04:55:19;;;;;;;2.25;0.50;;;19.40;65.50;;;;;;4993257;28;20069;-63
2022/09/26 04:57:47;;;;;;;2.03;0.73;;;19.40;65.50;;;;;;4977090;28;20466;-63
2022/09/26 05:00:13;;;;;;;1.45;0.57;;;19.40;65.50;;;;;;4993778;28;20053;-63
2022/09/26 05:02:39;;;;;;;1.20;0.60;;;19.40;65.50;;;;;;4993582;28;20038;-63
2022/09/26 05:05:05;;;;;;;1.77;0.70;;;19.40;65.50;;;;;;4992867;28;20108;-63
2022/09/26 05:07:31;;;;;;;1.38;0.60;;;19.40;65.50;;;;;;4993943;28;20038;-63
2022/09/26 05:09:56;;;;;;;1.60;0.60;;;19.40;65.50;;;;;;4993565;28;20047;-63
2022/09/26 05:12:22;;;;;;;1.70;0.50;;;19.40;65.50;;;;;;4993776;28;20543;-64
2022/09/26 05:14:47;;;;;;;1.52;0.60;;;19.40;65.50;;;;;;4993945;28;20478;-63
2022/09/26 05:17:13;;;;;;;1.70;0.60;;;19.40;65.60;;;;;;4992591;28;20057;-63
2022/09/26 05:19:41;;;;;;;1.30;0.80;;;19.40;65.60;;;;;;4993904;28;20181;-64
2022/09/26 05:22:07;;;;;;;1.25;0.55;;;19.40;65.60;;;;;;4993229;28;20482;-64
2022/09/26 05:27:27;;;;;;;1.00;0.70;;;19.40;65.60;;;;;;4957046;28;20043;-64
2022/09/26 05:29:54;;;;;;;0.98;0.55;;;19.40;65.60;;;;;;4992622;28;20100;-64
2022/09/26 05:32:21;;;;;;;1.02;0.60;;;19.40;65.60;;;;;;4993099;28;20498;-64
2022/09/26 05:34:47;;;;;;;1.23;0.50;;;19.40;65.60;;;;;;4993525;28;20062;-64
2022/09/26 05:37:13;;;;;;;1.90;0.70;;;19.40;65.60;;;;;;4992460;28;20050;-64
2022/09/26 05:42:23;;;;;;;1.05;0.57;;;19.50;65.60;;;;;;4993343;28;20050;-64
2022/09/26 05:44:48;;;;;;;1.45;0.55;;;19.50;65.60;;;;;;4992354;28;20050;-64
2022/09/26 05:47:15;;;;;;;1.70;0.70;;;19.50;65.60;;;;;;4993250;28;20043;-64
2022/09/26 05:49:40;;;;;;;0.85;0.40;;;19.60;65.70;;;;;;4992088;28;20129;-64
2022/09/26 05:52:06;;;;;;;1.23;0.40;;;19.50;65.60;;;;;;4992024;28;20117;-67
2022/09/26 05:54:32;;;;;;;1.33;0.65;;;19.60;65.70;;;;;;4993509;28;20057;-66
2022/09/26 05:56:57;;;;;;;1.45;0.52;;;19.60;65.60;;;;;;4993501;28;20050;-63
2022/09/26 05:59:23;;;;;;;1.67;0.70;;;19.60;65.60;;;;;;4986392;28;20049;-62
2022/09/26 06:01:48;;;;;;;3.63;0.63;;;19.60;65.70;;;;;;4975563;28;20719;-62
2022/09/26 06:04:14;;;;;;;1.75;0.73;;;19.60;65.60;;;;;;4972831;28;20074;-62
2022/09/26 06:06:41;;;;;;;2.83;0.73;;;19.70;65.70;;;;;;4972871;28;20055;-62
2022/09/26 06:09:06;;;;;;;2.20;0.90;;;19.70;65.70;;;;;;4978601;28;20049;-62
2022/09/26 06:11:32;;;;;;;4.70;1.17;;;19.70;65.70;;;;;;4975990;28;20522;-62
2022/09/26 06:14:01;;;;;;;1.73;0.75;;;19.70;65.70;;;;;;4972981;28;20050;-63
2022/09/26 06:16:27;;;;;;;4.22;0.88;;;19.80;65.70;;;;;;4973271;28;20133;-63
2022/09/26 06:18:54;;;;;;;3.13;0.88;;;19.80;65.70;;;;;;4973970;28;20465;-63
2022/09/26 06:21:20;;;;;;;3.30;0.70;;;19.80;65.70;;;;;;4972688;28;20114;-63
2022/09/26 06:23:45;;;;;;;2.05;0.70;;;19.80;65.70;;;;;;4973564;28;20051;-63
2022/09/26 06:26:19;;;;;;;2.65;0.77;;;19.80;65.70;;;;;;4972852;28;20046;-63
2022/09/26 06:28:44;;;;;;;1.58;0.68;;;19.90;65.80;;;;;;4975975;28;20077;-63
2022/09/26 06:31:11;;;;;;;3.47;0.82;;;19.90;65.80;;;;;;4982151;28;20148;-62
2022/09/26 06:33:37;;;;;;;1.67;0.73;;;19.90;65.80;;;;;;4982929;28;20050;-63
2022/09/26 06:36:04;;;;;;;3.35;0.88;;;19.90;65.90;;;;;;4983757;28;20042;-62
2022/09/26 06:38:29;;;;;;;4.03;1.00;;;19.90;65.90;;;;;;4981774;28;20057;-62
2022/09/26 06:40:55;;;;;;;2.67;0.90;;;19.90;65.90;;;;;;4972153;28;20046;-63
2022/09/26 06:43:20;;;;;;;2.90;0.75;;;19.90;65.90;;;;;;4973096;28;20049;-62
2022/09/26 06:45:47;;;;;;;4.13;0.88;;;20.00;66.00;;;;;;4973114;28;20055;-62
2022/09/26 06:48:16;;;;;;;3.47;0.95;;;20.00;66.00;;;;;;4972440;28;20127;-62
2022/09/26 06:50:43;;;;;;;3.42;0.80;;;20.00;66.10;;;;;;4973235;28;20375;-64
2022/09/26 06:53:08;;;;;;;3.15;0.88;;;20.00;66.10;;;;;;4973160;28;20814;-63
2022/09/26 06:55:34;;;;;;;2.80;0.90;;;20.00;66.10;;;;;;4972790;28;20043;-63
2022/09/26 06:57:59;;;;;;;1.45;0.70;;;20.00;66.10;;;;;;4973442;28;20038;-63
2022/09/26 07:00:25;;;;;;;1.65;1.00;;;20.00;66.00;;;;;;4974672;28;20054;-62
2022/09/26 07:02:51;;;;;;;3.88;0.95;;;20.10;66.10;;;;;;4992304;28;20042;-62
2022/09/26 07:05:18;;;;;;;3.22;0.80;;;20.10;66.20;;;;;;4988792;28;20047;-61
2022/09/26 07:07:45;;;;;;;5.72;1.30;;;20.10;66.30;;;;;;4991788;28;20038;-62
2022/09/26 07:10:12;;;;;;;4.63;1.10;;;20.10;66.40;;;;;;4981776;28;20047;-62
2022/09/26 07:12:42;;;;;;;4.07;1.23;;;20.10;66.40;;;;;;4976282;28;20045;-62
2022/09/26 07:15:12;;;;;;;4.50;1.30;;;20.20;66.50;;;;;;4975874;28;20050;-62
2022/09/26 07:17:39;;;;;;;6.20;1.40;;;20.20;66.30;;;;;;4975725;28;20490;-61
2022/09/26 07:20:06;;;;;;;6.88;1.55;;;20.20;66.30;;;;;;4982377;28;20050;-63
2022/09/26 07:22:32;;;;;;;3.42;1.33;;;20.20;66.40;;;;;;4988739;28;20049;-62
2022/09/26 07:24:58;;;;;;;4.53;1.50;;;20.20;66.40;;;;;;4984240;28;20042;-63
2022/09/26 07:27:23;;;;;;;6.32;1.55;;;20.20;66.40;;;;;;4994382;28;20042;-62
2022/09/26 07:29:49;;;;;;;5.18;1.65;;;20.30;66.40;;;;;;4979100;28;20043;-62
2022/09/26 07:32:14;;;;;;;4.88;1.67;;;20.30;66.40;;;;;;4974931;28;20043;-62
2022/09/26 07:34:41;;;;;;;4.57;1.60;;;20.30;66.40;;;;;;4976486;28;20082;-62
2022/09/26 07:37:07;;;;;;;5.07;1.38;;;20.30;66.30;;;;;;4975106;28;20407;-62
2022/09/26 07:39:32;;;;;;;5.45;1.30;;;20.30;66.30;;;;;;4976282;28;20486;-62
2022/09/26 07:42:00;;;;;;;7.35;1.52;;;20.30;66.20;;;;;;4976225;28;20039;-62
2022/09/26 07:44:26;;;;;;;5.38;1.60;;;20.30;66.20;;;;;;4975087;28;20071;-62
2022/09/26 07:52:21;;;;;;;5.25;1.40;;;20.30;66.20;;;;;;4979402;28;20490;-62
2022/09/26 07:54:46;;;;;;;5.03;1.40;;;20.30;66.20;;;;;;4981043;28;20069;-62
2022/09/26 07:57:12;;;;;;;4.25;1.20;;;20.30;66.20;;;;;;4975733;28;20359;-62
2022/09/26 07:59:38;;;;;;;6.32;1.33;;;20.40;66.20;;;;;;4975219;28;20078;-62
2022/09/26 08:02:04;;;;;;;4.60;1.30;;;20.40;66.20;;;;;;4976026;28;20126;-62
2022/09/26 08:04:29;;;;;;;4.85;1.50;;;20.40;66.10;;;;;;4975439;28;20051;-62
2022/09/26 08:06:55;;;;;;;7.32;1.30;;;20.40;66.10;;;;;;4974898;28;20443;-62
2022/09/26 08:09:21;;;;;;;5.15;1.40;;;20.40;66.10;;;;;;4975657;28;20106;-62
2022/09/26 08:11:46;;;;;;;4.07;1.20;;;20.30;66.00;;;;;;4974878;28;20085;-62
2022/09/26 08:14:12;;;;;;;3.80;1.10;;;20.40;66.10;;;;;;4974280;28;20073;-63
2022/09/26 08:16:40;;;;;;;4.68;1.13;;;20.40;66.00;;;;;;4974633;28;20046;-63
2022/09/26 08:19:07;;;;;;;5.68;1.40;;;20.30;65.90;;;;;;4974411;28;20047;-63
2022/09/26 08:21:33;;;;;;;3.97;1.40;;;20.40;66.00;;;;;;4958255;28;20105;-62
2022/09/26 08:23:59;;;;;;;5.20;1.23;;;20.40;66.00;;;;;;4975492;28;20129;-62
2022/09/26 08:26:24;;;;;;;4.60;1.10;;;20.30;65.90;;;;;;4974049;28;20038;-62
2022/09/26 08:28:50;;;;;;;5.25;1.40;;;20.40;66.10;;;;;;4974874;28;20442;-62
2022/09/26 08:31:16;;;;;;;3.60;1.20;;;20.40;66.00;;;;;;4975134;28;20034;-62
2022/09/26 08:33:43;;;;;;;5.15;1.55;;;20.40;66.00;;;;;;4974457;28;20047;-62
2022/09/26 08:36:10;;;;;;;4.45;1.25;;;20.40;66.00;;;;;;4974779;28;20043;-62
2022/09/26 08:38:36;;;;;;;4.72;1.00;;;20.40;66.00;;;;;;4974991;28;20406;-62
2022/09/26 08:41:10;;;;;;;3.72;1.27;;;20.40;66.00;;;;;;4974218;28;20049;-62
2022/09/26 08:43:48;;;;;;;4.50;1.13;;;20.40;66.00;;;;;;4973862;28;20597;-65
2022/09/26 08:46:40;;;;;;;4.13;1.20;;;20.40;66.00;;;;;;4973738;28;20105;-65
2022/09/26 08:49:20;;;;;;;4.15;1.00;;;20.40;65.90;;;;;;4958610;28;20042;-62
2022/09/26 08:51:47;;;;;;;3.03;0.93;;;20.40;65.90;;;;;;4974861;28;20051;-63
2022/09/26 08:54:35;;;;;;;4.90;1.13;;;20.40;65.80;;;;;;4975101;28;20038;-63
2022/09/26 08:57:15;;;;;;;4.77;0.93;;;20.40;65.80;;;;;;4965662;28;20058;-63
2022/09/26 08:59:42;;;;;;;2.80;0.90;;;20.40;65.80;;;;;;4993038;28;20321;-63
2022/09/26 09:02:31;;;;;;;4.30;0.90;;;20.40;65.80;;;;;;4975450;28;20445;-63
2022/09/26 09:05:17;;;;;;;1.75;0.80;;;20.40;65.70;;;;;;4992928;28;20470;-63
2022/09/26 09:07:44;;;;;;;3.60;1.13;;;20.40;65.70;;;;;;4993969;28;20121;-63
2022/09/26 09:10:21;;;;;;;3.83;1.30;;;20.40;65.70;;;;;;4991960;28;20034;-63
2022/09/26 09:12:58;;;;;;;5.22;1.55;;;20.30;65.70;;;;;;4992915;28;20089;-63
2022/09/26 09:15:28;;;;;;;3.50;0.87;;;20.40;65.70;;;;;;4992727;28;20386;-64
2022/09/26 09:18:06;;;;;;;4.65;0.90;;;20.40;65.70;;;;;;4983293;28;20046;-63
2022/09/26 09:20:44;;;;;;;3.35;0.90;;;20.40;65.70;;;;;;4984773;28;20488;-63
2022/09/26 09:23:51;;;;;;;3.97;1.05;;;20.40;65.70;;;;;;4982247;28;20046;-63
2022/09/26 09:26:31;;;;;;;3.22;1.50;;;20.40;65.70;;;;;;4939811;29;20048;-63
2022/09/26 09:29:27;;;;;;;2.97;0.90;;;20.40;65.70;;;;;;4939645;29;20048;-63
2022/09/26 09:31:53;;;;;;;3.00;1.08;;;20.40;65.70;;;;;;4971527;28;20053;-63
2022/09/26 09:34:27;;;;;;;3.08;1.10;;;20.40;65.60;;;;;;4983173;28;20117;-63
2022/09/26 09:36:58;;;;;;;2.78;0.90;;;20.40;65.70;;;;;;4980567;28;20078;-63
2022/09/26 09:39:34;;;;;;;4.50;0.93;;;20.40;65.60;;;;;;4981194;28;20125;-63
2022/09/26 09:42:18;;;;;;;2.75;1.00;;;20.40;65.60;;;;;;4967771;28;20046;-62
2022/09/26 09:44:46;;;;;;;2.45;0.80;;;20.40;65.60;;;;;;4983221;28;20056;-62
2022/09/26 09:47:13;;;;;;;2.63;0.80;;;20.30;65.60;;;;;;4982957;28;20181;-63
2022/09/26 09:49:39;;;;;;;2.45;0.95;;;20.40;65.60;;;;;;4965620;28;20043;-63
2022/09/26 09:52:29;;;;;;;3.45;1.00;;;20.40;65.60;;;;;;4964057;28;20161;-63
2022/09/26 09:55:04;;;;;;;2.65;0.90;;;20.40;65.60;;;;;;4981731;28;20035;-63
2022/09/26 09:57:41;;;;;;;2.83;1.10;;;20.40;65.60;;;;;;4981096;28;20491;-63
2022/09/26 10:00:17;;;;;;;3.83;1.00;;;20.40;65.60;;;;;;4980862;28;20098;-63
2022/09/26 10:02:46;;;;;;;2.90;0.73;;;20.30;65.60;;;;;;4982941;28;20038;-63
2022/09/26 10:05:24;;;;;;;4.90;1.27;;;20.30;65.60;;;;;;4982913;28;20073;-63
2022/09/26 10:07:56;;;;;;;2.67;0.88;;;20.30;65.50;;;;;;4978861;28;20046;-63
2022/09/26 10:10:26;;;;;;;3.85;0.60;;;20.30;65.60;;;;;;4973647;28;20592;-63
2022/09/26 10:12:52;;;;;;;2.20;0.80;;;20.30;65.60;;;;;;4955964;28;20105;-63
2022/09/26 10:15:20;;;;;;;4.00;0.90;;;20.30;65.60;;;;;;4971983;28;20046;-63
2022/09/26 10:17:59;;;;;;;3.10;0.98;;;20.30;65.60;;;;;;4979915;28;20035;-62
2022/09/26 10:20:40;;;;;;;3.75;0.80;;;20.30;65.60;;;;;;4979205;28;20251;-62
2022/09/26 10:23:28;;;;;;;2.85;0.73;;;20.30;65.60;;;;;;4965057;28;20070;-62
2022/09/26 10:25:59;;;;;;;4.60;1.10;;;20.30;65.60;;;;;;4983081;28;20501;-62
2022/09/26 10:28:51;;;;;;;4.00;0.93;;;20.30;65.60;;;;;;4970168;28;20035;-64
2022/09/26 10:31:47;;;;;;;2.83;1.00;;;20.30;65.50;;;;;;4966069;28;20090;-62
2022/09/26 10:34:24;;;;;;;3.78;0.90;;;20.20;65.50;;;;;;4982320;28;20039;-63
2022/09/26 10:36:50;;;;;;;2.60;0.95;;;20.20;65.50;;;;;;4985180;28;20038;-63
2022/09/26 10:42:00;;;;;;;2.95;0.70;;;20.20;65.60;;;;;;4984875;28;20077;-63
2022/09/26 10:44:33;;;;;;;3.50;0.85;;;20.20;65.70;;;;;;4986015;28;20652;-64
2022/09/26 10:47:07;;;;;;;2.88;0.70;;;20.20;65.70;;;;;;4985077;28;20138;-63
2022/09/26 10:49:56;;;;;;;3.50;0.98;;;20.20;65.70;;;;;;4987298;28;20046;-63
2022/09/26 10:52:36;;;;;;;4.30;0.98;;;20.20;65.70;;;;;;4995897;28;20505;-63
2022/09/26 10:55:06;;;;;;;2.60;1.00;;;20.20;65.80;;;;;;4994604;28;20494;-62
2022/09/26 10:57:39;;;;;;;4.40;1.23;;;20.20;65.80;;;;;;4995509;28;20109;-63
2022/09/26 11:00:07;;;;;;;2.20;0.90;;;20.20;65.80;;;;;;4995521;28;20050;-63
2022/09/26 11:02:32;;;;;;;3.80;0.80;;;20.20;65.80;;;;;;4995861;28;20042;-63
2022/09/26 11:07:45;;;;;;;4.53;0.90;;;20.20;65.70;;;;;;4995447;28;20954;-63
2022/09/26 11:10:24;;;;;;;4.20;1.00;;;20.20;65.70;;;;;;4995120;28;20125;-63
2022/09/26 11:13:14;;;;;;;1.33;0.60;;;20.20;65.70;;;;;;4995351;28;20117;-63
2022/09/26 11:15:42;;;;;;;2.03;0.60;;;20.20;65.60;;;;;;4994603;28;20065;-63
2022/09/26 11:18:11;;;;;;;1.92;0.55;;;20.20;65.70;;;;;;4978774;28;20050;-63
2022/09/26 11:20:52;;;;;;;1.77;0.80;;;20.20;65.70;;;;;;4994810;28;20493;-63
2022/09/26 11:23:26;;;;;;;1.92;0.82;;;20.20;65.80;;;;;;4994178;28;20078;-63
2022/09/26 11:25:54;;;;;;;3.20;0.75;;;20.10;65.70;;;;;;4995879;28;20054;-63
2022/09/26 11:28:26;;;;;;;2.40;0.85;;;20.10;65.70;;;;;;4994840;28;20042;-63
2022/09/26 11:30:55;;;;;;;2.88;0.88;;;20.10;65.70;;;;;;4994229;28;20082;-63
2022/09/26 11:33:21;;;;;;;1.70;0.75;;;20.10;65.80;;;;;;4994555;28;20103;-63
2022/09/26 11:36:09;;;;;;;2.03;0.68;;;20.10;65.80;;;;;;4995065;28;20050;-63
2022/09/26 11:38:46;;;;;;;;;;;20.10;65.80;;;;;;4978818;28;20046;-63
2022/09/26 11:41:36;;;;;;;2.45;0.60;;;20.10;65.70;;;;;;4995567;28;19928;-64
2022/09/26 11:44:32;;;;;;;3.78;0.85;;;20.10;65.80;;;;;;4977239;28;20066;-64
2022/09/26 11:47:29;;;;;;;2.38;0.70;;;20.10;65.80;;;;;;4994806;28;20046;-63
2022/09/26 11:50:34;;;;;;;2.35;0.75;;;20.10;65.80;;;;;;4992943;28;20584;-63
2022/09/26 11:53:06;;;;;;;1.88;0.80;;;20.10;65.80;;;;;;4995345;28;20090;-63
2022/09/26 11:55:59;;;;;;;2.35;1.05;;;20.10;65.80;;;;;;4995537;28;20088;-63
2022/09/26 11:58:38;;;;;;;4.00;0.75;;;20.10;65.80;;;;;;4994548;28;20085;-63
2022/09/26 12:01:03;;;;;;;;;;;20.10;65.90;;;;;;4995958;28;20521;-63
2022/09/26 12:03:54;;;;;;;1.77;0.60;;;20.00;65.80;;;;;;4994681;28;19922;-63
2022/09/26 12:06:32;;;;;;;2.70;1.00;;;20.00;65.90;;;;;;4995044;28;20124;-63
2022/09/26 12:09:11;;;;;;;2.03;0.70;;;20.00;65.90;;;;;;4994116;28;20046;-63
2022/09/26 12:12:15;;;;;;;1.75;0.73;;;20.00;65.90;;;;;;4993459;28;20057;-63
2022/09/26 12:14:51;;;;;;;3.53;0.80;;;20.00;65.90;;;;;;4984616;28;20055;-63
2022/09/26 12:17:24;;;;;;;2.03;0.55;;;20.00;65.90;;;;;;4993895;28;20043;-63
2022/09/26 12:20:01;;;;;;;2.85;0.70;;;20.00;65.90;;;;;;4993163;28;20185;-63
2022/09/26 12:22:37;;;;;;;1.52;0.70;;;20.00;65.90;;;;;;4994830;28;20149;-62
2022/09/26 12:25:21;;;;;;;1.45;0.50;;;20.00;65.90;;;;;;4993116;28;20055;-63
2022/09/26 12:28:11;;;;;;;1.50;0.80;;;20.00;65.90;;;;;;4995250;28;20057;-64
2022/09/26 12:30:41;;;;;;;1.13;0.60;;;20.00;65.90;;;;;;4994066;28;20078;-63
2022/09/26 12:33:07;;;;;;;2.15;0.73;;;20.00;65.90;;;;;;4976502;28;20054;-63
2022/09/26 12:35:44;;;;;;;2.78;0.60;;;20.00;65.90;;;;;;4994799;28;20047;-63
2022/09/26 12:38:20;;;;;;;2.47;0.68;;;20.00;65.90;;;;;;4993291;28;20050;-63
2022/09/26 12:41:01;;;;;;;2.38;0.50;;;20.00;65.90;;;;;;4993729;28;20394;-63
2022/09/26 12:43:54;;;;;;;2.28;0.70;;;20.00;65.90;;;;;;4994589;28;20061;-63
2022/09/26 12:46:57;;;;;;;1.67;0.60;;;20.00;65.90;;;;;;4954960;28;20057;-63
2022/09/26 12:49:35;;;;;;;3.08;0.65;;;20.00;65.80;;;;;;4954462;29;20070;-63
2022/09/26 12:52:12;;;;;;;1.30;0.60;;;20.00;65.90;;;;;;4969729;28;20047;-63
2022/09/26 12:54:42;;;;;;;1.40;0.70;;;20.00;65.90;;;;;;4968856;28;20089;-63
2022/09/26 12:57:26;;;;;;;1.25;0.50;;;20.00;65.90;;;;;;4955300;28;20455;-63
2022/09/26 13:00:10;;;;;;;1.98;0.70;;;20.00;65.90;;;;;;4970301;28;20043;-63
2022/09/26 13:03:00;;;;;;;1.67;0.60;;;20.00;65.90;;;;;;4955606;28;20055;-63
2022/09/26 13:05:53;;;;;;;2.72;0.60;;;20.00;65.90;;;;;;4967613;28;20066;-63
2022/09/26 13:08:59;;;;;;;1.55;0.60;;;20.00;65.90;;;;;;4954690;28;20046;-63
2022/09/26 13:11:36;;;;;;;1.40;0.50;;;20.00;65.80;;;;;;4969769;28;20491;-63
2022/09/26 13:14:31;;;;;;;2.03;0.70;;;20.00;65.80;;;;;;4969665;28;20055;-63
2022/09/26 13:16:58;;;;;;;1.27;0.57;;;20.00;65.80;;;;;;4953327;29;20055;-63
2022/09/26 13:19:33;;;;;;;1.73;0.63;;;20.00;65.80;;;;;;4955044;28;20047;-63
2022/09/26 13:22:01;;;;;;;1.63;0.57;;;20.10;65.80;;;;;;4969185;28;20047;-63
2022/09/26 13:25:08;;;;;;;1.50;0.65;;;20.10;65.80;;;;;;4969858;28;20055;-63
2022/09/26 13:27:42;;;;;;;1.75;0.60;;;20.10;65.80;;;;;;4967004;28;20059;-63
2022/09/26 13:30:16;;;;;;;2.35;0.60;;;20.10;65.90;;;;;;4968455;28;20396;-63